Time;durP1;ratioP1;P1;durP2;ratioP2;P2;SDS_P1;SDS_P2;PMS_P1;PMS_P2;Temp;Humidity;BMP_temperature;BMP_pressure;BME280_temperature;BME280_humidity;BME280_pressure;Samples;Min_cycle;Max_cycle;Signal;HPM_P1;HPM_P2
2024/03/31 00:01:06;;;;;;;14.80;4.07;;;;;;;17.69;53.42;99351.84;5152125;27;20123;-60
2024/03/31 00:03:37;;;;;;;13.15;4.05;;;;;;;17.60;53.84;99357.31;5152120;27;20047;-60
2024/03/31 00:06:04;;;;;;;22.23;5.20;;;;;;;17.50;54.88;99353.88;5151967;27;20723;-61
2024/03/31 00:08:31;;;;;;;14.55;4.88;;;;;;;17.53;54.43;99351.69;5151953;27;20042;-60
2024/03/31 00:10:59;;;;;;;19.15;5.20;;;;;;;17.51;54.30;99342.91;5152246;27;20127;-62
2024/03/31 00:13:26;;;;;;;13.45;4.45;;;;;;;17.53;54.28;99331.97;5151978;27;20122;-60
2024/03/31 00:15:53;;;;;;;11.18;3.03;;;;;;;17.50;53.11;99330.44;5151923;27;20088;-61
2024/03/31 00:18:20;;;;;;;14.45;4.22;;;;;;;17.57;53.42;99334.22;5151928;27;20046;-58
2024/03/31 00:20:52;;;;;;;13.82;4.22;;;;;;;17.47;53.72;99330.78;5151513;27;20146;-60
2024/03/31 00:23:20;;;;;;;11.73;4.03;;;;;;;17.45;53.54;99321.97;5152029;27;20444;-60
2024/03/31 00:25:46;;;;;;;11.45;3.58;;;;;;;17.45;53.78;99321.97;5152127;27;20043;-60
2024/03/31 00:28:17;;;;;;;15.80;4.63;;;;;;;17.42;53.88;99330.38;5135527;27;20095;-60
2024/03/31 00:30:52;;;;;;;13.48;4.15;;;;;;;17.36;54.75;99331.00;5151837;27;20047;-60
2024/03/31 00:33:19;;;;;;;15.95;4.18;;;;;;;17.34;54.85;99324.94;5151545;27;20432;-60
2024/03/31 00:35:53;;;;;;;11.27;3.78;;;;;;;17.27;54.99;99323.88;5152016;27;20066;-61
2024/03/31 00:38:20;;;;;;;14.88;4.60;;;;;;;17.22;55.10;99323.50;5151988;27;20549;-60
2024/03/31 00:40:47;;;;;;;13.23;3.72;;;;;;;17.13;55.14;99323.44;5152079;27;20043;-61
2024/03/31 00:43:14;;;;;;;12.90;3.30;;;;;;;17.15;54.58;99321.44;5154875;27;20428;-61
2024/03/31 00:45:41;;;;;;;12.63;3.85;;;;;;;17.22;54.78;99324.34;5155555;27;20100;-60
2024/03/31 00:48:08;;;;;;;9.13;3.42;;;;;;;17.17;54.54;99326.66;5155663;27;20094;-60
2024/03/31 00:50:35;;;;;;;10.48;3.80;;;;;;;17.13;54.47;99323.44;5152436;27;20067;-60
2024/03/31 00:53:04;;;;;;;12.43;3.65;;;;;;;17.15;54.32;99321.44;5151844;27;20054;-61
2024/03/31 00:55:31;;;;;;;10.40;3.50;;;;;;;17.26;54.59;99323.03;5151516;27;20130;-60
2024/03/31 00:57:58;;;;;;;8.50;3.35;;;;;;;17.29;54.32;99328.13;5151434;27;20460;-61
2024/03/31 01:00:25;;;;;;;10.35;3.50;;;;;;;17.33;54.58;99324.09;5151380;27;20053;-59
2024/03/31 01:02:52;;;;;;;8.93;3.70;;;;;;;17.34;54.09;99325.78;5150800;27;20487;-61
2024/03/31 01:05:18;;;;;;;10.40;3.33;;;;;;;17.32;54.27;99324.25;5151409;27;20078;-61
2024/03/31 01:07:46;;;;;;;10.57;3.40;;;;;;;17.31;54.26;99326.09;5151392;27;20058;-60
2024/03/31 01:10:14;;;;;;;9.48;3.40;;;;;;;17.21;54.40;99322.66;5151130;27;20038;-60
2024/03/31 01:12:42;;;;;;;11.35;3.53;;;;;;;17.26;54.63;99327.56;5151571;27;20150;-59
2024/03/31 01:15:09;;;;;;;8.55;3.50;;;;;;;17.27;54.43;99322.00;5151115;27;20047;-61
2024/03/31 01:17:36;;;;;;;10.55;3.67;;;;;;;17.29;54.78;99321.88;5151186;27;20050;-61
2024/03/31 01:20:03;;;;;;;11.68;3.17;;;;;;;17.29;54.52;99316.50;5151226;27;20046;-60
2024/03/31 01:22:31;;;;;;;14.82;3.45;;;;;;;17.21;55.34;99319.13;5150941;27;20382;-59
2024/03/31 01:24:58;;;;;;;11.30;3.35;;;;;;;17.15;55.00;99313.34;5150863;27;20047;-60
2024/03/31 01:27:26;;;;;;;9.80;3.28;;;;;;;17.10;55.25;99312.97;5151013;27;20047;-61
2024/03/31 01:29:52;;;;;;;8.75;3.35;;;;;;;17.04;55.51;99308.22;5150853;27;20178;-62
2024/03/31 01:32:19;;;;;;;10.38;3.40;;;;;;;16.99;55.25;99310.53;5151383;27;20111;-62
2024/03/31 01:34:46;;;;;;;9.65;3.50;;;;;;;17.06;55.29;99311.59;5155300;27;20130;-60
2024/03/31 01:37:14;;;;;;;10.60;3.72;;;;;;;17.14;54.84;99314.34;5155152;27;20463;-60
2024/03/31 01:39:40;;;;;;;9.27;3.17;;;;;;;17.10;54.93;99312.97;5155012;27;20045;-61
2024/03/31 01:42:09;;;;;;;11.95;3.38;;;;;;;17.12;55.40;99310.97;5154934;27;20122;-59
2024/03/31 01:44:35;;;;;;;12.15;4.00;;;;;;;17.09;55.34;99303.22;5154726;27;20103;-60
2024/03/31 01:47:02;;;;;;;10.48;3.28;;;;;;;17.12;55.21;99304.75;5154774;27;20129;-61
2024/03/31 01:49:29;;;;;;;11.98;3.47;;;;;;;17.13;55.09;99312.66;5154958;27;20063;-61
2024/03/31 01:51:56;;;;;;;12.95;3.67;;;;;;;17.13;55.11;99322.59;5154811;27;20039;-60
2024/03/31 01:54:22;;;;;;;9.30;3.00;;;;;;;17.11;55.03;99320.06;5154743;27;20046;-60
2024/03/31 01:56:49;;;;;;;8.55;3.10;;;;;;;17.01;55.27;99319.31;5154514;27;20130;-60
2024/03/31 01:59:17;;;;;;;11.82;3.40;;;;;;;17.01;55.54;99324.69;5154572;27;20081;-60
2024/03/31 02:01:45;;;;;;;15.88;3.25;;;;;;;16.91;55.85;99334.72;5154389;27;20054;-58
2024/03/31 02:04:11;;;;;;;8.18;3.53;;;;;;;16.83;55.95;99332.78;5154511;27;20094;-61
2024/03/31 02:06:38;;;;;;;9.52;3.38;;;;;;;16.79;56.09;99335.94;5154630;27;20130;-61
2024/03/31 02:09:05;;;;;;;6.35;3.03;;;;;;;16.66;56.70;99336.28;5154382;27;20574;-60
2024/03/31 02:11:32;;;;;;;10.15;3.60;;;;;;;16.64;56.82;99332.91;5154563;27;20113;-60
2024/03/31 02:13:58;;;;;;;8.77;3.30;;;;;;;16.57;57.16;99331.81;5154290;27;20082;-60
2024/03/31 02:16:27;;;;;;;11.02;3.40;;;;;;;16.57;57.40;99331.81;5154226;27;20043;-60
2024/03/31 02:18:53;;;;;;;8.27;3.05;;;;;;;16.50;57.48;99325.34;5154278;27;20161;-60
2024/03/31 02:21:20;;;;;;;9.48;3.13;;;;;;;16.43;57.96;99327.81;5154224;27;20540;-61
2024/03/31 02:23:47;;;;;;;11.30;3.30;;;;;;;16.46;58.03;99332.03;5154304;27;20051;-60
2024/03/31 02:26:14;;;;;;;10.82;3.15;;;;;;;16.48;58.01;99338.97;5154350;27;20047;-61
2024/03/31 02:28:40;;;;;;;9.55;3.15;;;;;;;16.46;58.14;99334.72;5154031;27;20050;-59
2024/03/31 02:31:07;;;;;;;8.45;2.97;;;;;;;16.46;58.22;99337.44;5154131;27;20050;-60
2024/03/31 02:33:35;;;;;;;8.18;3.13;;;;;;;16.38;58.27;99343.56;5154162;27;20139;-61
2024/03/31 02:36:03;;;;;;;12.18;3.30;;;;;;;16.25;58.99;99343.94;5154015;27;20042;-59
2024/03/31 02:38:29;;;;;;;9.45;3.40;;;;;;;16.17;59.68;99341.13;5153899;27;20042;-60
2024/03/31 02:40:57;;;;;;;8.82;3.33;;;;;;;16.10;60.14;99336.50;5153822;27;20632;-60
2024/03/31 02:43:24;;;;;;;8.35;3.05;;;;;;;16.00;60.29;99340.06;5153437;27;20107;-60
2024/03/31 02:45:50;;;;;;;10.45;3.20;;;;;;;15.98;60.21;99336.69;5153926;27;20359;-60
2024/03/31 02:48:17;;;;;;;6.38;2.80;;;;;;;15.86;60.65;99335.19;5153538;27;20479;-61
2024/03/31 02:50:47;;;;;;;9.25;3.58;;;;;;;16.00;60.33;99341.91;5153546;27;20046;-60
2024/03/31 02:53:14;;;;;;;9.30;3.22;;;;;;;15.99;60.20;99338.38;5153652;27;20055;-60
2024/03/31 02:55:41;;;;;;;7.88;3.28;;;;;;;15.79;61.16;99342.16;5153462;27;20054;-60
2024/03/31 02:58:11;;;;;;;11.85;3.17;;;;;;;15.74;61.47;99349.84;5153715;27;20043;-60
2024/03/31 03:00:37;;;;;;;10.32;3.35;;;;;;;15.55;61.86;99349.88;5153485;27;20078;-60
2024/03/31 03:03:05;;;;;;;7.32;2.95;;;;;;;15.44;62.57;99349.03;5153162;27;20050;-60
2024/03/31 03:05:31;;;;;;;14.82;2.88;;;;;;;15.40;62.65;99350.31;5153618;27;20480;-63
2024/03/31 03:07:59;;;;;;;9.55;3.17;;;;;;;15.40;62.84;99347.63;5153900;27;20039;-62
2024/03/31 03:10:27;;;;;;;10.57;3.15;;;;;;;15.27;63.16;99352.47;5153970;27;20134;-62
2024/03/31 03:12:54;;;;;;;7.88;2.97;;;;;;;15.37;63.12;99352.44;5154711;27;20043;-62
2024/03/31 03:15:22;;;;;;;8.05;3.00;;;;;;;15.38;62.98;99357.66;5154008;27;20123;-62
2024/03/31 03:17:50;;;;;;;10.77;3.50;;;;;;;15.26;63.83;99355.31;5154361;27;20114;-63
2024/03/31 03:20:18;;;;;;;8.98;2.83;;;;;;;15.36;63.11;99356.97;5154157;27;20053;-61
2024/03/31 03:22:45;;;;;;;8.95;2.90;;;;;;;15.41;63.21;99353.84;5154029;27;20046;-62
2024/03/31 03:25:13;;;;;;;10.55;3.00;;;;;;;15.52;62.53;99360.88;5154102;27;20057;-62
2024/03/31 03:27:40;;;;;;;8.40;2.80;;;;;;;15.71;61.77;99374.31;5154308;27;20046;-62
2024/03/31 03:30:07;;;;;;;8.13;2.67;;;;;;;15.70;61.46;99369.91;5154267;27;20038;-61
2024/03/31 03:32:35;;;;;;;10.20;2.70;;;;;;;15.76;61.38;99373.88;5153111;27;20099;-62
2024/03/31 03:35:01;;;;;;;7.97;2.80;;;;;;;15.77;61.11;99371.03;5152601;27;20488;-61
2024/03/31 03:37:29;;;;;;;8.55;2.90;;;;;;;15.84;61.07;99372.16;5152710;27;20043;-61
2024/03/31 03:39:56;;;;;;;6.53;3.10;;;;;;;15.84;60.97;99380.22;5152854;27;20078;-60
2024/03/31 03:42:24;;;;;;;8.82;2.80;;;;;;;15.84;60.56;99382.91;5152816;27;20129;-60
2024/03/31 03:44:51;;;;;;;8.90;2.78;;;;;;;15.74;60.66;99387.47;5152520;27;20051;-60
2024/03/31 03:47:18;;;;;;;10.02;2.92;;;;;;;15.69;60.73;99389.75;5152666;27;20039;-60
2024/03/31 03:49:44;;;;;;;6.90;2.80;;;;;;;15.76;60.24;99396.25;5152469;27;20050;-60
2024/03/31 03:52:11;;;;;;;7.68;2.60;;;;;;;15.55;60.98;99399.09;5152343;27;20043;-60
2024/03/31 03:54:38;;;;;;;5.53;2.47;;;;;;;15.62;60.10;99402.06;5152173;27;20126;-60
2024/03/31 03:57:05;;;;;;;10.90;2.72;;;;;;;15.64;59.86;99400.09;5151949;27;20047;-60
2024/03/31 03:59:33;;;;;;;6.18;2.50;;;;;;;15.53;59.72;99400.19;5152384;27;20050;-60
2024/03/31 04:02:00;;;;;;;7.75;2.60;;;;;;;15.56;58.78;99405.31;5152160;27;20043;-62
2024/03/31 04:04:26;;;;;;;9.18;2.55;;;;;;;15.61;58.61;99413.81;5152183;27;20047;-61
2024/03/31 04:06:54;;;;;;;7.60;2.50;;;;;;;15.56;58.62;99418.75;5151912;27;20051;-61
2024/03/31 04:09:20;;;;;;;8.82;2.45;;;;;;;15.57;57.84;99421.28;5152227;27;20047;-61
2024/03/31 04:11:47;;;;;;;9.52;2.97;;;;;;;15.63;57.72;99410.00;5152082;27;20047;-61
2024/03/31 04:14:13;;;;;;;8.25;3.00;;;;;;;15.53;57.17;99419.00;5152146;27;20051;-63
2024/03/31 04:16:42;;;;;;;8.13;2.50;;;;;;;15.67;57.19;99424.00;5151681;27;20503;-60
2024/03/31 04:19:09;;;;;;;11.15;2.80;;;;;;;15.58;57.67;99422.13;5151894;27;20444;-59
2024/03/31 04:21:36;;;;;;;6.97;2.30;;;;;;;15.66;57.60;99425.00;5151762;27;20046;-59
2024/03/31 04:24:02;;;;;;;7.55;2.60;;;;;;;15.49;58.18;99423.84;5139855;27;20142;-61
2024/03/31 04:26:29;;;;;;;11.43;2.15;;;;;;;15.47;58.08;99423.16;5131210;27;20058;-61
2024/03/31 04:28:56;;;;;;;8.10;2.53;;;;;;;15.38;58.59;99424.84;5131103;27;20072;-61
2024/03/31 04:31:23;;;;;;;7.97;2.72;;;;;;;15.37;58.40;99428.53;5131249;27;20043;-60
2024/03/31 04:33:50;;;;;;;9.00;2.72;;;;;;;15.38;58.41;99429.38;5131043;27;20047;-59
2024/03/31 04:36:18;;;;;;;10.40;2.67;;;;;;;15.39;57.93;99431.91;5130942;27;20043;-60
2024/03/31 04:38:44;;;;;;;6.85;2.47;;;;;;;15.36;57.54;99431.38;5132445;27;20399;-60
2024/03/31 04:41:11;;;;;;;6.60;2.42;;;;;;;15.31;57.46;99433.63;5131339;27;20091;-60
2024/03/31 04:43:37;;;;;;;10.35;2.90;;;;;;;15.42;57.45;99436.16;5130800;27;20058;-60
2024/03/31 04:46:07;;;;;;;6.97;2.25;;;;;;;15.39;56.87;99431.06;5130908;27;20153;-60
2024/03/31 04:48:34;;;;;;;8.57;2.70;;;;;;;15.30;56.67;99434.59;5130579;27;20047;-59
2024/03/31 04:51:04;;;;;;;11.23;2.80;;;;;;;15.33;56.09;99440.53;5130923;27;20047;-60
2024/03/31 04:53:31;;;;;;;9.38;2.40;;;;;;;15.37;55.88;99433.91;5130905;27;20050;-61
2024/03/31 04:56:01;;;;;;;12.27;2.67;;;;;;;15.32;54.92;99433.47;5130682;27;20058;-60
2024/03/31 04:58:27;;;;;;;7.00;2.45;;;;;;;15.27;54.33;99427.69;5130464;27;20047;-60
2024/03/31 05:00:54;;;;;;;6.40;2.40;;;;;;;15.32;53.56;99425.41;5130440;27;20553;-58
2024/03/31 05:03:22;;;;;;;9.32;2.55;;;;;;;15.31;53.18;99423.72;5130280;27;20047;-60
2024/03/31 05:05:50;;;;;;;6.45;2.38;;;;;;;15.30;52.15;99421.19;5130173;27;20039;-58
2024/03/31 05:08:17;;;;;;;10.88;2.63;;;;;;;15.45;52.00;99417.91;5130523;27;20046;-59
2024/03/31 05:10:54;;;;;;;11.18;2.42;;;;;;;15.54;51.81;99415.34;5130358;28;20047;-60
2024/03/31 05:13:20;;;;;;;7.60;2.40;;;;;;;15.53;51.22;99417.19;5130180;28;20100;-59
2024/03/31 05:15:57;;;;;;;7.30;2.55;;;;;;;15.57;51.30;99415.06;5130092;28;20055;-58
2024/03/31 05:18:24;;;;;;;10.10;2.20;;;;;;;15.70;50.83;99421.00;5130614;27;20051;-61
2024/03/31 05:20:56;;;;;;;8.57;2.25;;;;;;;15.77;50.45;99422.13;5130316;27;20047;-58
2024/03/31 05:23:24;;;;;;;8.00;2.73;;;;;;;15.80;50.44;99413.75;5130138;28;20512;-60
2024/03/31 05:25:52;;;;;;;8.40;2.42;;;;;;;15.69;50.42;99427.38;5130130;27;20096;-59
2024/03/31 05:28:19;;;;;;;8.20;2.28;;;;;;;15.70;49.96;99429.91;5130217;27;20466;-59
2024/03/31 05:30:46;;;;;;;8.15;2.55;;;;;;;15.73;49.88;99435.03;5130490;28;20062;-59
2024/03/31 05:33:13;;;;;;;7.68;2.33;;;;;;;15.76;50.25;99431.19;5130324;27;20150;-59
2024/03/31 05:35:42;;;;;;;6.00;2.30;;;;;;;15.73;49.92;99428.81;5130228;27;20051;-60
2024/03/31 05:38:09;;;;;;;6.28;2.13;;;;;;;15.69;50.61;99430.06;5130235;27;20357;-60
2024/03/31 05:40:39;;;;;;;8.00;2.15;;;;;;;15.78;50.16;99434.56;5130126;28;20043;-61
2024/03/31 05:43:05;;;;;;;7.25;2.67;;;;;;;15.84;49.47;99423.25;5130022;27;20081;-60
2024/03/31 05:45:34;;;;;;;6.00;2.50;;;;;;;15.85;48.90;99427.63;5130226;27;20628;-61
2024/03/31 05:48:00;;;;;;;7.18;2.38;;;;;;;15.89;49.39;99434.41;5130336;28;20051;-59
2024/03/31 05:50:28;;;;;;;7.28;2.10;;;;;;;15.91;49.41;99436.94;5130052;27;20464;-60
2024/03/31 05:52:54;;;;;;;7.82;2.13;;;;;;;15.86;49.10;99439.22;5130042;27;20050;-61
2024/03/31 05:55:21;;;;;;;7.78;2.47;;;;;;;15.90;49.02;99452.22;5130005;27;20091;-59
2024/03/31 05:57:49;;;;;;;11.02;2.55;;;;;;;16.00;48.50;99461.13;5129906;27;20051;-59
2024/03/31 06:00:17;;;;;;;12.40;3.05;;;;;;;16.06;48.24;99461.53;5130152;27;20520;-58
2024/03/31 06:02:43;;;;;;;7.53;2.40;;;;;;;16.01;48.70;99460.13;5129935;27;20047;-60
2024/03/31 06:05:11;;;;;;;9.18;2.33;;;;;;;15.94;48.68;99448.28;5129943;27;20368;-59
2024/03/31 06:07:37;;;;;;;6.55;2.30;;;;;;;16.01;48.79;99445.81;5129828;28;20065;-60
2024/03/31 06:10:05;;;;;;;8.57;2.40;;;;;;;16.08;48.17;99432.66;5129820;27;20480;-59
2024/03/31 06:12:31;;;;;;;6.40;2.05;;;;;;;16.18;48.24;99438.84;5130150;28;20039;-60
2024/03/31 06:15:00;;;;;;;9.35;2.50;;;;;;;16.26;47.85;99447.88;5129791;27;20131;-60
2024/03/31 06:17:27;;;;;;;8.05;2.58;;;;;;;16.29;47.73;99455.63;5129881;27;20771;-60
2024/03/31 06:19:57;;;;;;;11.63;2.45;;;;;;;16.35;47.87;99454.22;5132619;27;20488;-59
2024/03/31 06:22:23;;;;;;;8.88;2.20;;;;;;;16.38;47.40;99456.59;5133713;27;20078;-60
2024/03/31 06:24:51;;;;;;;7.80;2.40;;;;;;;16.35;47.09;99454.22;5133180;27;20043;-58
2024/03/31 06:27:17;;;;;;;8.77;2.38;;;;;;;16.25;47.58;99456.94;5133423;27;20047;-60
2024/03/31 06:29:48;;;;;;;6.70;2.40;;;;;;;16.34;47.29;99457.91;5133436;27;20082;-61
2024/03/31 06:32:16;;;;;;;9.77;2.53;;;;;;;16.41;46.70;99464.38;5133171;27;20047;-59
2024/03/31 06:34:45;;;;;;;10.63;2.03;;;;;;;16.35;46.80;99475.72;5133337;27;20142;-61
2024/03/31 06:37:11;;;;;;;12.60;2.40;;;;;;;16.35;46.66;99475.72;5133098;27;20050;-59
2024/03/31 06:39:38;;;;;;;8.75;2.08;;;;;;;16.49;47.05;99477.94;5133064;27;20085;-60
2024/03/31 06:42:05;;;;;;;8.45;2.38;;;;;;;16.39;47.36;99482.50;5133232;27;20043;-59
2024/03/31 06:44:32;;;;;;;9.48;2.60;;;;;;;16.35;46.70;99481.13;5133205;27;20043;-60
2024/03/31 06:46:58;;;;;;;7.72;2.40;;;;;;;16.46;46.99;99475.53;5133279;27;20054;-61
2024/03/31 06:49:27;;;;;;;6.47;2.10;;;;;;;16.45;47.10;99473.84;5132882;27;20047;-59
2024/03/31 06:51:53;;;;;;;6.30;2.35;;;;;;;16.37;47.06;99476.44;5115726;27;20086;-60
2024/03/31 06:54:21;;;;;;;8.52;2.30;;;;;;;16.37;46.77;99471.03;5133058;27;20058;-57
2024/03/31 06:56:47;;;;;;;7.97;2.20;;;;;;;16.45;45.67;99468.47;5132908;27;20047;-60
2024/03/31 06:59:14;;;;;;;7.40;2.58;;;;;;;16.45;47.22;99463.09;5132760;27;20095;-61
2024/03/31 07:01:41;;;;;;;8.10;2.45;;;;;;;16.66;45.42;99460.13;5132660;27;20043;-58
2024/03/31 07:04:08;;;;;;;6.90;2.30;;;;;;;16.71;44.66;99457.03;5132493;27;20096;-61
2024/03/31 07:06:36;;;;;;;7.53;2.30;;;;;;;16.63;44.47;99455.06;5132640;27;20142;-59
2024/03/31 07:09:06;;;;;;;10.60;2.10;;;;;;;16.67;45.06;99444.81;5132488;27;20043;-60
2024/03/31 07:11:32;;;;;;;10.20;2.50;;;;;;;16.83;44.70;99439.66;5132416;27;20556;-59
2024/03/31 07:14:00;;;;;;;8.70;2.28;;;;;;;16.82;44.64;99433.44;5132402;27;20050;-59
2024/03/31 07:16:26;;;;;;;9.20;2.38;;;;;;;16.81;45.14;99436.28;5132161;27;20154;-61
2024/03/31 07:18:53;;;;;;;6.57;2.42;;;;;;;17.01;44.81;99443.22;5132316;27;20114;-60
2024/03/31 07:21:20;;;;;;;9.18;2.50;;;;;;;17.07;43.88;99441.75;5132573;27;20108;-61
2024/03/31 07:23:48;;;;;;;8.50;2.70;;;;;;;17.18;43.86;99455.03;5132582;27;20058;-59
2024/03/31 07:26:15;;;;;;;9.30;2.30;;;;;;;17.13;44.09;99458.16;5132430;27;20040;-59
2024/03/31 07:28:42;;;;;;;7.07;2.35;;;;;;;17.13;43.87;99457.31;5132226;27;20134;-60
2024/03/31 07:31:08;;;;;;;7.32;2.25;;;;;;;17.27;43.16;99459.47;5130785;27;20044;-60
2024/03/31 07:33:35;;;;;;;7.88;2.35;;;;;;;17.30;43.31;99463.72;5131930;27;20050;-58
2024/03/31 07:36:02;;;;;;;8.77;2.50;;;;;;;17.47;42.71;99460.19;5132247;27;20048;-60
2024/03/31 07:38:29;;;;;;;7.10;2.90;;;;;;;17.59;41.39;99463.47;5132133;27;20479;-58
2024/03/31 07:40:57;;;;;;;6.75;2.50;;;;;;;17.39;42.83;99452.00;5132108;27;20043;-60
2024/03/31 07:43:25;;;;;;;7.97;2.80;;;;;;;17.63;41.21;99454.06;5131857;27;20480;-60
2024/03/31 07:45:52;;;;;;;8.40;2.40;;;;;;;17.78;40.22;99446.28;5131931;27;20106;-59
2024/03/31 07:48:20;;;;;;;9.77;2.50;;;;;;;17.90;39.98;99447.72;5131796;27;20045;-60
2024/03/31 07:50:47;;;;;;;12.10;2.90;;;;;;;18.17;39.19;99439.44;5131715;27;20047;-59
2024/03/31 07:53:13;;;;;;;11.10;2.65;;;;;;;18.39;38.51;99439.88;5131769;27;20066;-59
2024/03/31 07:55:41;;;;;;;7.88;2.33;;;;;;;18.64;38.61;99444.41;5131759;27;20100;-58
2024/03/31 07:58:09;;;;;;;7.82;2.40;;;;;;;18.56;37.84;99441.66;5131804;27;20039;-57
2024/03/31 08:00:36;;;;;;;8.77;2.35;;;;;;;18.60;37.75;99443.00;5131581;27;20127;-59
2024/03/31 08:03:03;;;;;;;6.43;2.08;;;;;;;18.99;37.48;99456.84;5131222;27;20051;-57
2024/03/31 08:05:30;;;;;;;7.90;2.30;;;;;;;19.04;37.24;99473.41;5131452;27;20047;-59
2024/03/31 08:07:56;;;;;;;8.60;2.45;;;;;;;19.31;37.45;99466.88;5131576;27;20043;-58
2024/03/31 08:10:24;;;;;;;9.35;2.63;;;;;;;19.49;37.46;99460.44;5131489;27;20046;-58
2024/03/31 08:12:50;;;;;;;7.47;2.17;;;;;;;19.40;36.76;99457.78;5131150;27;20039;-57
2024/03/31 08:15:19;;;;;;;6.78;2.25;;;;;;;19.48;38.29;99466.88;5131311;27;20131;-59
2024/03/31 08:17:45;;;;;;;5.65;2.00;;;;;;;19.71;35.47;99471.50;5131458;27;20361;-58
2024/03/31 08:20:12;;;;;;;6.68;2.33;;;;;;;19.72;35.38;99466.94;5131287;27;20525;-53
2024/03/31 08:22:38;;;;;;;8.35;2.05;;;;;;;19.81;37.29;99470.47;5131209;27;20074;-57
2024/03/31 08:25:06;;;;;;;11.70;2.65;;;;;;;20.01;35.49;99471.81;5131075;27;20083;-57
2024/03/31 08:27:32;;;;;;;10.13;2.17;;;;;;;20.32;35.62;99471.91;5130897;27;20051;-56
2024/03/31 08:29:59;;;;;;;10.15;2.42;;;;;;;20.30;34.14;99468.53;5130935;27;20047;-57
2024/03/31 08:32:26;;;;;;;7.70;2.10;;;;;;;20.32;33.66;99466.47;5130775;27;20078;-58
2024/03/31 08:34:54;;;;;;;8.27;2.30;;;;;;;20.67;33.79;99459.78;5129654;27;20146;-59
2024/03/31 08:37:20;;;;;;;11.32;3.08;;;;;;;20.71;33.85;99458.41;5128582;27;20078;-55
2024/03/31 08:39:47;;;;;;;8.73;2.22;;;;;;;20.85;33.23;99456.84;5129818;27;20043;-55
2024/03/31 08:42:20;;;;;;;7.82;2.28;;;;;;;21.07;33.44;99456.00;5128880;27;20441;-58
2024/03/31 08:44:49;;;;;;;9.77;2.65;;;;;;;21.23;34.20;99457.78;5128926;27;20058;-59
2024/03/31 08:47:19;;;;;;;11.65;2.60;;;;;;;21.28;33.32;99457.28;5127805;27;20408;-57
2024/03/31 08:49:48;;;;;;;7.07;2.50;;;;;;;21.42;32.61;99453.75;5128966;27;20043;-56
2024/03/31 08:52:16;;;;;;;15.82;6.10;;;;;;;21.45;36.44;99448.00;5126679;27;20046;-60
2024/03/31 08:54:44;;;;;;;13.00;6.25;;;;;;;21.71;34.85;99428.59;5129096;27;20126;-58
2024/03/31 08:57:11;;;;;;;7.90;2.58;;;;;;;21.76;32.39;99441.63;5127906;27;20043;-57
2024/03/31 08:59:38;;;;;;;9.15;2.90;;;;;;;21.55;31.27;99435.03;5128388;27;20051;-57
2024/03/31 09:02:10;;;;;;;9.50;2.47;;;;;;;21.67;30.98;99428.13;5129451;27;20055;-58
2024/03/31 09:04:37;;;;;;;7.82;2.20;;;;;;;21.93;31.35;99421.44;5126070;27;20074;-55
2024/03/31 09:07:05;;;;;;;8.45;2.40;;;;;;;21.97;31.28;99417.31;5127945;27;20043;-57
2024/03/31 09:09:32;;;;;;;7.63;2.75;;;;;;;21.86;31.26;99418.63;5129416;27;20130;-57
2024/03/31 09:12:00;;;;;;;9.98;2.53;;;;;;;21.91;31.87;99424.34;5129371;27;20048;-56
2024/03/31 09:14:27;;;;;;;8.85;2.28;;;;;;;21.94;30.37;99421.25;5129155;28;20051;-60
2024/03/31 09:16:54;;;;;;;10.60;2.70;;;;;;;22.11;30.08;99423.84;5128138;28;20138;-58
2024/03/31 09:19:21;;;;;;;7.28;2.22;;;;;;;22.32;30.71;99417.66;5128786;28;20079;-57
2024/03/31 09:21:47;;;;;;;10.38;2.50;;;;;;;22.38;30.73;99415.00;5129329;28;20043;-59
2024/03/31 09:24:17;;;;;;;12.15;3.05;;;;;;;22.40;30.33;99412.97;5129100;28;20047;-59
2024/03/31 09:26:45;;;;;;;15.38;3.60;;;;;;;22.52;29.51;99414.16;5127372;27;20066;-59
2024/03/31 09:29:13;;;;;;;11.80;2.85;;;;;;;22.65;29.18;99416.19;5129316;28;20160;-60
2024/03/31 09:31:39;;;;;;;9.60;2.95;;;;;;;22.60;28.99;99415.94;5129067;28;20388;-60
2024/03/31 09:34:07;;;;;;;13.18;2.60;;;;;;;22.64;29.30;99419.94;5128785;28;20130;-61
2024/03/31 09:36:38;;;;;;;14.18;3.08;;;;;;;22.80;29.66;99411.59;5127880;28;20062;-60
2024/03/31 09:39:05;;;;;;;15.00;2.90;;;;;;;22.87;29.04;99398.06;5128663;27;20100;-59
2024/03/31 09:41:35;;;;;;;14.32;2.95;;;;;;;22.91;28.28;99390.41;5128864;27;20047;-61
2024/03/31 09:44:03;;;;;;;10.38;2.85;;;;;;;22.89;28.65;99389.75;5129113;28;20397;-60
2024/03/31 09:46:31;;;;;;;9.38;2.50;;;;;;;22.96;28.79;99390.66;5127815;28;20107;-59
2024/03/31 09:49:04;;;;;;;13.13;2.40;;;;;;;22.92;28.10;99392.91;5128957;28;20164;-60
2024/03/31 09:51:34;;;;;;;;;;;;;;;23.07;28.53;99382.00;5129546;28;20086;-59
2024/03/31 09:54:03;;;;;;;12.10;2.88;;;;;;;23.08;27.78;99370.09;5122224;27;19923;-59
2024/03/31 09:56:39;;;;;;;13.52;2.58;;;;;;;23.21;28.08;99378.38;5131693;27;20499;-59
2024/03/31 09:59:10;;;;;;;9.75;2.83;;;;;;;23.22;27.68;99358.28;5132727;27;20051;-59
2024/03/31 10:01:39;;;;;;;12.43;2.53;;;;;;;23.35;27.93;99358.38;5133297;27;20039;-61
2024/03/31 10:04:13;;;;;;;8.73;2.53;;;;;;;23.52;28.13;99358.97;5132763;27;20126;-59
2024/03/31 10:06:41;;;;;;;9.10;2.60;;;;;;;23.52;28.66;99358.13;5131738;27;20047;-60
2024/03/31 10:09:09;;;;;;;12.75;2.80;;;;;;;23.54;28.23;99364.19;5133280;27;20088;-60
2024/03/31 10:11:38;;;;;;;12.30;3.03;;;;;;;23.40;28.72;99365.97;5134059;27;20407;-61
2024/03/31 10:14:07;;;;;;;14.35;2.75;;;;;;;23.39;28.35;99364.31;5133946;27;20043;-60
2024/03/31 10:16:35;;;;;;;12.18;2.88;;;;;;;23.39;29.09;99356.97;5133432;27;20585;-60
2024/03/31 10:19:03;;;;;;;16.17;2.70;;;;;;;23.42;28.83;99356.56;5133525;27;20043;-59
2024/03/31 10:21:31;;;;;;;11.75;3.33;;;;;;;23.51;29.12;99349.13;5133707;27;20039;-61
2024/03/31 10:24:00;;;;;;;19.42;3.40;;;;;;;23.50;29.68;99343.88;5133295;27;20051;-59
2024/03/31 10:26:28;;;;;;;15.32;3.22;;;;;;;23.69;29.61;99348.66;5133473;27;20138;-59
2024/03/31 10:28:59;;;;;;;14.50;3.20;;;;;;;23.67;28.66;99345.28;5133363;27;20673;-60
2024/03/31 10:31:25;;;;;;;11.95;2.90;;;;;;;23.75;28.89;99347.88;5133217;27;20453;-58
2024/03/31 10:33:53;;;;;;;17.50;4.13;;;;;;;23.73;28.75;99349.94;5133603;27;20035;-60
2024/03/31 10:36:19;;;;;;;18.05;3.33;;;;;;;23.78;28.26;99352.91;5133571;27;20091;-59
2024/03/31 10:38:47;;;;;;;8.45;2.95;;;;;;;23.96;28.87;99349.69;5133414;27;20116;-60
2024/03/31 10:41:14;;;;;;;11.38;2.72;;;;;;;24.13;29.27;99347.47;5133345;27;20047;-60
2024/03/31 10:43:42;;;;;;;10.88;2.95;;;;;;;24.30;29.42;99343.34;5133267;27;20043;-61
2024/03/31 10:46:10;;;;;;;11.50;2.85;;;;;;;24.32;29.36;99343.16;5133147;27;20108;-60
2024/03/31 10:48:37;;;;;;;13.35;2.88;;;;;;;24.27;27.96;99335.59;5133466;27;20087;-60
2024/03/31 10:51:13;;;;;;;10.20;2.15;;;;;;;24.30;27.86;99339.78;5133188;27;20043;-60
2024/03/31 10:53:40;;;;;;;13.43;3.15;;;;;;;24.21;27.83;99341.84;5133143;27;20047;-58
2024/03/31 10:56:07;;;;;;;15.02;2.53;;;;;;;24.16;27.38;99338.88;5133320;27;20051;-62
2024/03/31 10:58:34;;;;;;;16.50;3.00;;;;;;;24.05;28.06;99343.03;5132803;27;20043;-61
2024/03/31 11:01:01;;;;;;;12.25;2.33;;;;;;;23.92;27.88;99337.47;5133190;27;20075;-61
2024/03/31 11:03:31;;;;;;;16.13;2.72;;;;;;;23.78;28.27;99336.56;5132669;27;20043;-60
2024/03/31 11:05:58;;;;;;;11.68;2.85;;;;;;;23.77;27.60;99340.34;5132978;27;20048;-62
2024/03/31 11:08:26;;;;;;;20.00;4.35;;;;;;;23.75;27.84;99336.97;5133856;27;20071;-63
2024/03/31 11:10:53;;;;;;;12.43;3.60;;;;;;;23.89;27.60;99327.84;5133567;27;20054;-59
2024/03/31 11:13:21;;;;;;;14.75;3.75;;;;;;;23.96;27.89;99326.00;5133018;27;20055;-60
2024/03/31 11:15:48;;;;;;;15.38;2.67;;;;;;;24.16;27.79;99317.09;5132863;27;20110;-63
2024/03/31 11:18:15;;;;;;;11.70;3.08;;;;;;;24.14;28.30;99321.91;5133973;27;20068;-61
2024/03/31 11:20:44;;;;;;;11.68;3.20;;;;;;;24.23;27.44;99331.59;5132255;27;20043;-60
2024/03/31 11:23:13;;;;;;;18.27;3.22;;;;;;;24.18;27.70;99326.75;5132659;27;20040;-60
2024/03/31 11:25:40;;;;;;;16.75;3.42;;;;;;;23.94;27.69;99330.81;5131912;27;20149;-61
2024/03/31 11:28:09;;;;;;;12.98;3.22;;;;;;;24.12;28.15;99322.09;5131620;27;20149;-60
2024/03/31 11:30:36;;;;;;;16.75;3.53;;;;;;;24.22;27.39;99327.16;5131663;27;20044;-61